sensor_id;sensor_type;location;lat;lon;timestamp;P1;durP1;ratioP1;P2;durP2;ratioP2
64842;SDS011;51310;52.198;5.422;2023-11-18T00:00:23;51.78;;;21.63;;
64842;SDS011;51310;52.198;5.422;2023-11-18T00:02:49;50.80;;;21.33;;
64842;SDS011;51310;52.198;5.422;2023-11-18T00:05:16;59.05;;;22.65;;
64842;SDS011;51310;52.198;5.422;2023-11-18T00:07:42;54.20;;;23.65;;
64842;SDS011;51310;52.198;5.422;2023-11-18T00:10:09;54.08;;;23.02;;
64842;SDS011;51310;52.198;5.422;2023-11-18T00:12:36;50.35;;;21.40;;
64842;SDS011;51310;52.198;5.422;2023-11-18T00:15:05;49.22;;;20.33;;
64842;SDS011;51310;52.198;5.422;2023-11-18T00:17:36;42.40;;;20.88;;
64842;SDS011;51310;52.198;5.422;2023-11-18T00:20:03;64.82;;;24.65;;
64842;SDS011;51310;52.198;5.422;2023-11-18T00:22:34;48.40;;;22.25;;
64842;SDS011;51310;52.198;5.422;2023-11-18T00:25:02;51.75;;;23.25;;
64842;SDS011;51310;52.198;5.422;2023-11-18T00:27:34;56.00;;;21.55;;
64842;SDS011;51310;52.198;5.422;2023-11-18T00:30:03;47.97;;;21.77;;
64842;SDS011;51310;52.198;5.422;2023-11-18T00:32:33;56.88;;;21.33;;
64842;SDS011;51310;52.198;5.422;2023-11-18T00:35:00;50.97;;;22.20;;
64842;SDS011;51310;52.198;5.422;2023-11-18T00:37:26;46.30;;;21.85;;
64842;SDS011;51310;52.198;5.422;2023-11-18T00:39:53;54.72;;;22.10;;
64842;SDS011;51310;52.198;5.422;2023-11-18T00:42:18;52.97;;;23.13;;
64842;SDS011;51310;52.198;5.422;2023-11-18T00:44:44;53.65;;;21.38;;
64842;SDS011;51310;52.198;5.422;2023-11-18T00:47:10;55.28;;;24.40;;
64842;SDS011;51310;52.198;5.422;2023-11-18T00:49:36;47.63;;;20.92;;
64842;SDS011;51310;52.198;5.422;2023-11-18T00:52:02;57.25;;;20.63;;
64842;SDS011;51310;52.198;5.422;2023-11-18T00:54:28;46.85;;;22.08;;
64842;SDS011;51310;52.198;5.422;2023-11-18T00:56:55;55.28;;;23.67;;
64842;SDS011;51310;52.198;5.422;2023-11-18T00:59:21;50.60;;;22.48;;
64842;SDS011;51310;52.198;5.422;2023-11-18T01:01:47;43.17;;;20.05;;
64842;SDS011;51310;52.198;5.422;2023-11-18T01:04:14;46.85;;;21.42;;
64842;SDS011;51310;52.198;5.422;2023-11-18T01:06:41;46.13;;;21.85;;
64842;SDS011;51310;52.198;5.422;2023-11-18T01:09:08;60.95;;;21.80;;
64842;SDS011;51310;52.198;5.422;2023-11-18T01:11:34;56.92;;;21.25;;
64842;SDS011;51310;52.198;5.422;2023-11-18T01:14:01;50.08;;;23.88;;
64842;SDS011;51310;52.198;5.422;2023-11-18T01:16:27;53.33;;;22.77;;
64842;SDS011;51310;52.198;5.422;2023-11-18T01:18:54;58.15;;;22.75;;
64842;SDS011;51310;52.198;5.422;2023-11-18T01:21:20;52.05;;;22.48;;
64842;SDS011;51310;52.198;5.422;2023-11-18T01:23:46;57.20;;;22.52;;
64842;SDS011;51310;52.198;5.422;2023-11-18T01:26:14;55.58;;;22.73;;
64842;SDS011;51310;52.198;5.422;2023-11-18T01:28:40;60.67;;;24.15;;
64842;SDS011;51310;52.198;5.422;2023-11-18T01:31:08;57.33;;;24.90;;
64842;SDS011;51310;52.198;5.422;2023-11-18T01:33:35;60.67;;;23.73;;
64842;SDS011;51310;52.198;5.422;2023-11-18T01:36:05;58.92;;;24.63;;
64842;SDS011;51310;52.198;5.422;2023-11-18T01:38:33;55.28;;;23.10;;
64842;SDS011;51310;52.198;5.422;2023-11-18T01:41:06;59.88;;;24.75;;
64842;SDS011;51310;52.198;5.422;2023-11-18T01:43:34;59.15;;;24.23;;
64842;SDS011;51310;52.198;5.422;2023-11-18T01:46:03;51.05;;;21.63;;
64842;SDS011;51310;52.198;5.422;2023-11-18T01:48:35;60.15;;;23.50;;
64842;SDS011;51310;52.198;5.422;2023-11-18T01:51:03;58.97;;;21.38;;
64842;SDS011;51310;52.198;5.422;2023-11-18T01:53:32;57.47;;;23.63;;
64842;SDS011;51310;52.198;5.422;2023-11-18T01:56:02;62.10;;;24.50;;
64842;SDS011;51310;52.198;5.422;2023-11-18T01:58:30;55.50;;;21.50;;
64842;SDS011;51310;52.198;5.422;2023-11-18T02:01:02;58.30;;;23.02;;
64842;SDS011;51310;52.198;5.422;2023-11-18T02:03:33;55.53;;;23.98;;
64842;SDS011;51310;52.198;5.422;2023-11-18T02:06:03;51.47;;;22.73;;
64842;SDS011;51310;52.198;5.422;2023-11-18T02:08:32;50.88;;;22.27;;
64842;SDS011;51310;52.198;5.422;2023-11-18T02:11:36;60.38;;;24.00;;
64842;SDS011;51310;52.198;5.422;2023-11-18T02:14:13;53.53;;;24.02;;
64842;SDS011;51310;52.198;5.422;2023-11-18T02:16:42;55.17;;;24.52;;
64842;SDS011;51310;52.198;5.422;2023-11-18T02:19:20;52.83;;;21.63;;
64842;SDS011;51310;52.198;5.422;2023-11-18T02:21:50;60.28;;;23.65;;
64842;SDS011;51310;52.198;5.422;2023-11-18T02:24:31;61.90;;;23.67;;
64842;SDS011;51310;52.198;5.422;2023-11-18T02:27:02;50.70;;;21.88;;
64842;SDS011;51310;52.198;5.422;2023-11-18T02:29:32;57.45;;;23.52;;
64842;SDS011;51310;52.198;5.422;2023-11-18T02:32:08;65.13;;;25.45;;
64842;SDS011;51310;52.198;5.422;2023-11-18T02:35:13;57.22;;;24.20;;
64842;SDS011;51310;52.198;5.422;2023-11-18T02:37:55;51.03;;;22.90;;
64842;SDS011;51310;52.198;5.422;2023-11-18T02:40:26;58.60;;;23.17;;
64842;SDS011;51310;52.198;5.422;2023-11-18T02:43:08;51.28;;;22.67;;
64842;SDS011;51310;52.198;5.422;2023-11-18T02:45:36;57.42;;;24.27;;
64842;SDS011;51310;52.198;5.422;2023-11-18T02:48:04;64.53;;;25.90;;
64842;SDS011;51310;52.198;5.422;2023-11-18T02:50:31;53.45;;;22.48;;
64842;SDS011;51310;52.198;5.422;2023-11-18T02:52:57;52.35;;;23.95;;
64842;SDS011;51310;52.198;5.422;2023-11-18T02:55:23;67.72;;;25.23;;
64842;SDS011;51310;52.198;5.422;2023-11-18T02:57:50;58.83;;;23.63;;
64842;SDS011;51310;52.198;5.422;2023-11-18T03:00:17;59.03;;;24.92;;
64842;SDS011;51310;52.198;5.422;2023-11-18T03:02:44;60.85;;;24.95;;
64842;SDS011;51310;52.198;5.422;2023-11-18T03:05:12;55.83;;;23.23;;
64842;SDS011;51310;52.198;5.422;2023-11-18T03:07:38;65.15;;;24.45;;
64842;SDS011;51310;52.198;5.422;2023-11-18T03:10:06;61.50;;;24.98;;
64842;SDS011;51310;52.198;5.422;2023-11-18T03:12:45;60.67;;;26.75;;
64842;SDS011;51310;52.198;5.422;2023-11-18T03:15:19;63.28;;;23.95;;
64842;SDS011;51310;52.198;5.422;2023-11-18T03:17:47;74.00;;;24.95;;
64842;SDS011;51310;52.198;5.422;2023-11-18T03:20:22;60.85;;;25.05;;
64842;SDS011;51310;52.198;5.422;2023-11-18T03:22:49;59.70;;;25.35;;
64842;SDS011;51310;52.198;5.422;2023-11-18T03:25:18;64.68;;;26.35;;
64842;SDS011;51310;52.198;5.422;2023-11-18T03:27:46;77.13;;;27.48;;
64842;SDS011;51310;52.198;5.422;2023-11-18T03:30:12;58.95;;;25.63;;
64842;SDS011;51310;52.198;5.422;2023-11-18T03:32:39;66.68;;;26.55;;
64842;SDS011;51310;52.198;5.422;2023-11-18T03:35:06;64.97;;;26.08;;
64842;SDS011;51310;52.198;5.422;2023-11-18T03:37:43;60.55;;;25.35;;
64842;SDS011;51310;52.198;5.422;2023-11-18T03:40:12;59.38;;;25.15;;
64842;SDS011;51310;52.198;5.422;2023-11-18T03:42:40;65.43;;;26.67;;
64842;SDS011;51310;52.198;5.422;2023-11-18T03:45:07;58.65;;;25.38;;
64842;SDS011;51310;52.198;5.422;2023-11-18T03:47:36;67.18;;;26.10;;
64842;SDS011;51310;52.198;5.422;2023-11-18T03:50:03;58.70;;;25.58;;
64842;SDS011;51310;52.198;5.422;2023-11-18T03:52:30;66.35;;;26.73;;
64842;SDS011;51310;52.198;5.422;2023-11-18T03:54:56;58.42;;;24.92;;
64842;SDS011;51310;52.198;5.422;2023-11-18T03:57:22;63.08;;;26.48;;
64842;SDS011;51310;52.198;5.422;2023-11-18T03:59:47;64.13;;;25.20;;
64842;SDS011;51310;52.198;5.422;2023-11-18T04:02:13;62.88;;;26.08;;
64842;SDS011;51310;52.198;5.422;2023-11-18T04:04:39;66.47;;;25.77;;
64842;SDS011;51310;52.198;5.422;2023-11-18T04:07:05;59.55;;;25.92;;
64842;SDS011;51310;52.198;5.422;2023-11-18T04:09:31;59.95;;;24.85;;
64842;SDS011;51310;52.198;5.422;2023-11-18T04:11:58;53.72;;;24.80;;
64842;SDS011;51310;52.198;5.422;2023-11-18T04:14:23;63.65;;;25.95;;
64842;SDS011;51310;52.198;5.422;2023-11-18T04:16:50;62.58;;;25.05;;
64842;SDS011;51310;52.198;5.422;2023-11-18T04:19:17;54.30;;;23.90;;
64842;SDS011;51310;52.198;5.422;2023-11-18T04:21:43;54.38;;;25.20;;
64842;SDS011;51310;52.198;5.422;2023-11-18T04:24:13;59.03;;;25.38;;
64842;SDS011;51310;52.198;5.422;2023-11-18T04:26:40;62.50;;;25.00;;
64842;SDS011;51310;52.198;5.422;2023-11-18T04:29:06;61.58;;;26.73;;
64842;SDS011;51310;52.198;5.422;2023-11-18T04:31:32;58.40;;;25.05;;
64842;SDS011;51310;52.198;5.422;2023-11-18T04:33:59;67.05;;;25.48;;
64842;SDS011;51310;52.198;5.422;2023-11-18T04:36:25;52.30;;;24.00;;
64842;SDS011;51310;52.198;5.422;2023-11-18T04:38:51;58.08;;;26.13;;
64842;SDS011;51310;52.198;5.422;2023-11-18T04:41:17;68.13;;;25.08;;
64842;SDS011;51310;52.198;5.422;2023-11-18T04:43:43;64.95;;;28.33;;
64842;SDS011;51310;52.198;5.422;2023-11-18T04:46:09;57.58;;;25.55;;
64842;SDS011;51310;52.198;5.422;2023-11-18T04:48:35;62.20;;;26.00;;
64842;SDS011;51310;52.198;5.422;2023-11-18T04:51:01;63.40;;;27.40;;
64842;SDS011;51310;52.198;5.422;2023-11-18T04:53:27;62.05;;;26.65;;
64842;SDS011;51310;52.198;5.422;2023-11-18T04:55:53;65.38;;;25.08;;
64842;SDS011;51310;52.198;5.422;2023-11-18T04:58:20;47.92;;;24.55;;
64842;SDS011;51310;52.198;5.422;2023-11-18T05:00:46;70.22;;;25.50;;
64842;SDS011;51310;52.198;5.422;2023-11-18T05:03:13;62.15;;;25.25;;
64842;SDS011;51310;52.198;5.422;2023-11-18T05:05:39;61.38;;;24.92;;
64842;SDS011;51310;52.198;5.422;2023-11-18T05:08:05;57.90;;;25.90;;
64842;SDS011;51310;52.198;5.422;2023-11-18T05:10:33;57.50;;;23.23;;
64842;SDS011;51310;52.198;5.422;2023-11-18T05:13:00;55.38;;;24.83;;
64842;SDS011;51310;52.198;5.422;2023-11-18T05:15:26;53.00;;;23.75;;
64842;SDS011;51310;52.198;5.422;2023-11-18T05:17:53;59.33;;;25.33;;
64842;SDS011;51310;52.198;5.422;2023-11-18T05:20:19;61.72;;;23.80;;
64842;SDS011;51310;52.198;5.422;2023-11-18T05:22:47;67.20;;;23.95;;
64842;SDS011;51310;52.198;5.422;2023-11-18T05:25:13;57.88;;;25.35;;
64842;SDS011;51310;52.198;5.422;2023-11-18T05:27:40;64.57;;;24.70;;
64842;SDS011;51310;52.198;5.422;2023-11-18T05:30:06;61.55;;;27.30;;
64842;SDS011;51310;52.198;5.422;2023-11-18T05:32:34;56.92;;;26.77;;
64842;SDS011;51310;52.198;5.422;2023-11-18T05:35:00;66.88;;;25.95;;
64842;SDS011;51310;52.198;5.422;2023-11-18T05:37:29;65.65;;;26.50;;
64842;SDS011;51310;52.198;5.422;2023-11-18T05:40:01;55.70;;;23.95;;
64842;SDS011;51310;52.198;5.422;2023-11-18T05:42:34;64.68;;;25.75;;
64842;SDS011;51310;52.198;5.422;2023-11-18T05:45:05;58.85;;;24.75;;
64842;SDS011;51310;52.198;5.422;2023-11-18T05:47:32;53.70;;;24.90;;
64842;SDS011;51310;52.198;5.422;2023-11-18T05:50:01;57.55;;;25.75;;
64842;SDS011;51310;52.198;5.422;2023-11-18T05:52:30;65.25;;;26.33;;
64842;SDS011;51310;52.198;5.422;2023-11-18T05:54:56;58.53;;;25.70;;
64842;SDS011;51310;52.198;5.422;2023-11-18T05:57:22;48.47;;;24.58;;
64842;SDS011;51310;52.198;5.422;2023-11-18T05:59:48;63.40;;;24.73;;
64842;SDS011;51310;52.198;5.422;2023-11-18T06:02:13;66.80;;;26.02;;
64842;SDS011;51310;52.198;5.422;2023-11-18T06:04:46;52.08;;;24.83;;
64842;SDS011;51310;52.198;5.422;2023-11-18T06:07:12;53.42;;;23.52;;
64842;SDS011;51310;52.198;5.422;2023-11-18T06:09:38;58.40;;;25.33;;
64842;SDS011;51310;52.198;5.422;2023-11-18T06:12:07;56.13;;;24.10;;
64842;SDS011;51310;52.198;5.422;2023-11-18T06:14:35;58.28;;;24.40;;
64842;SDS011;51310;52.198;5.422;2023-11-18T06:17:02;67.22;;;25.33;;
64842;SDS011;51310;52.198;5.422;2023-11-18T06:19:29;55.63;;;24.42;;
64842;SDS011;51310;52.198;5.422;2023-11-18T06:21:54;64.18;;;25.23;;
64842;SDS011;51310;52.198;5.422;2023-11-18T06:24:20;58.90;;;24.02;;
64842;SDS011;51310;52.198;5.422;2023-11-18T06:26:46;69.20;;;25.55;;
64842;SDS011;51310;52.198;5.422;2023-11-18T06:29:14;53.50;;;23.52;;
64842;SDS011;51310;52.198;5.422;2023-11-18T06:31:41;46.75;;;23.63;;
64842;SDS011;51310;52.198;5.422;2023-11-18T06:34:07;55.55;;;22.60;;
64842;SDS011;51310;52.198;5.422;2023-11-18T06:36:33;51.53;;;24.15;;
64842;SDS011;51310;52.198;5.422;2023-11-18T06:39:00;53.60;;;22.55;;
64842;SDS011;51310;52.198;5.422;2023-11-18T06:41:26;55.08;;;24.13;;
64842;SDS011;51310;52.198;5.422;2023-11-18T06:43:58;55.05;;;22.88;;
64842;SDS011;51310;52.198;5.422;2023-11-18T06:46:33;53.47;;;21.00;;
64842;SDS011;51310;52.198;5.422;2023-11-18T06:49:01;53.53;;;23.15;;
64842;SDS011;51310;52.198;5.422;2023-11-18T06:51:29;53.42;;;22.73;;
64842;SDS011;51310;52.198;5.422;2023-11-18T06:54:00;51.92;;;22.75;;
64842;SDS011;51310;52.198;5.422;2023-11-18T06:56:42;53.30;;;23.20;;
64842;SDS011;51310;52.198;5.422;2023-11-18T06:59:09;63.00;;;23.42;;
64842;SDS011;51310;52.198;5.422;2023-11-18T07:01:40;49.67;;;22.20;;
64842;SDS011;51310;52.198;5.422;2023-11-18T07:04:09;52.00;;;21.15;;
64842;SDS011;51310;52.198;5.422;2023-11-18T07:06:36;47.90;;;23.33;;
64842;SDS011;51310;52.198;5.422;2023-11-18T07:09:06;59.92;;;23.90;;
64842;SDS011;51310;52.198;5.422;2023-11-18T07:11:38;45.00;;;20.42;;
64842;SDS011;51310;52.198;5.422;2023-11-18T07:14:08;56.13;;;21.17;;
64842;SDS011;51310;52.198;5.422;2023-11-18T07:16:37;52.05;;;21.63;;
64842;SDS011;51310;52.198;5.422;2023-11-18T07:19:05;58.05;;;22.23;;
64842;SDS011;51310;52.198;5.422;2023-11-18T07:21:31;59.35;;;22.67;;
64842;SDS011;51310;52.198;5.422;2023-11-18T07:23:59;51.38;;;21.30;;
64842;SDS011;51310;52.198;5.422;2023-11-18T07:26:27;49.30;;;20.83;;
64842;SDS011;51310;52.198;5.422;2023-11-18T07:28:53;59.30;;;23.10;;
64842;SDS011;51310;52.198;5.422;2023-11-18T07:31:19;53.10;;;22.42;;
64842;SDS011;51310;52.198;5.422;2023-11-18T07:33:46;46.88;;;21.63;;
64842;SDS011;51310;52.198;5.422;2023-11-18T07:36:17;44.13;;;19.50;;
64842;SDS011;51310;52.198;5.422;2023-11-18T07:38:46;53.75;;;20.55;;
64842;SDS011;51310;52.198;5.422;2023-11-18T07:41:12;45.97;;;20.90;;
64842;SDS011;51310;52.198;5.422;2023-11-18T07:43:52;45.67;;;20.63;;
64842;SDS011;51310;52.198;5.422;2023-11-18T07:46:20;60.08;;;22.30;;
64842;SDS011;51310;52.198;5.422;2023-11-18T07:48:48;48.50;;;19.83;;
64842;SDS011;51310;52.198;5.422;2023-11-18T07:51:16;48.92;;;22.60;;
64842;SDS011;51310;52.198;5.422;2023-11-18T07:53:49;41.85;;;20.73;;
64842;SDS011;51310;52.198;5.422;2023-11-18T07:56:16;46.55;;;20.60;;
64842;SDS011;51310;52.198;5.422;2023-11-18T07:58:42;54.60;;;23.17;;
64842;SDS011;51310;52.198;5.422;2023-11-18T08:01:12;50.38;;;21.77;;
64842;SDS011;51310;52.198;5.422;2023-11-18T08:03:42;50.33;;;21.83;;
64842;SDS011;51310;52.198;5.422;2023-11-18T08:06:08;49.60;;;21.45;;
64842;SDS011;51310;52.198;5.422;2023-11-18T08:08:37;52.90;;;23.42;;
64842;SDS011;51310;52.198;5.422;2023-11-18T08:11:03;54.10;;;22.13;;
64842;SDS011;51310;52.198;5.422;2023-11-18T08:13:31;50.00;;;22.77;;
64842;SDS011;51310;52.198;5.422;2023-11-18T08:15:57;38.80;;;20.98;;
64842;SDS011;51310;52.198;5.422;2023-11-18T08:18:23;44.00;;;21.35;;
64842;SDS011;51310;52.198;5.422;2023-11-18T08:20:49;40.38;;;20.00;;
64842;SDS011;51310;52.198;5.422;2023-11-18T08:23:15;41.15;;;20.05;;
64842;SDS011;51310;52.198;5.422;2023-11-18T08:25:44;58.53;;;22.85;;
64842;SDS011;51310;52.198;5.422;2023-11-18T08:28:11;56.50;;;23.52;;
64842;SDS011;51310;52.198;5.422;2023-11-18T08:30:38;44.55;;;20.42;;
64842;SDS011;51310;52.198;5.422;2023-11-18T08:33:05;39.05;;;20.45;;
64842;SDS011;51310;52.198;5.422;2023-11-18T08:35:33;51.22;;;19.73;;
64842;SDS011;51310;52.198;5.422;2023-11-18T08:38:02;46.30;;;19.88;;
64842;SDS011;51310;52.198;5.422;2023-11-18T08:40:29;42.95;;;19.83;;
64842;SDS011;51310;52.198;5.422;2023-11-18T08:42:56;46.25;;;20.02;;
64842;SDS011;51310;52.198;5.422;2023-11-18T08:45:24;38.38;;;19.90;;
64842;SDS011;51310;52.198;5.422;2023-11-18T08:47:54;43.80;;;21.55;;
64842;SDS011;51310;52.198;5.422;2023-11-18T08:50:22;41.20;;;19.33;;
64842;SDS011;51310;52.198;5.422;2023-11-18T08:52:50;40.50;;;18.77;;
64842;SDS011;51310;52.198;5.422;2023-11-18T08:55:23;37.20;;;19.90;;
64842;SDS011;51310;52.198;5.422;2023-11-18T08:58:04;39.30;;;18.52;;
64842;SDS011;51310;52.198;5.422;2023-11-18T09:00:46;35.30;;;18.48;;
64842;SDS011;51310;52.198;5.422;2023-11-18T09:03:20;43.28;;;20.08;;
64842;SDS011;51310;52.198;5.422;2023-11-18T09:06:02;32.75;;;18.13;;
64842;SDS011;51310;52.198;5.422;2023-11-18T09:08:35;32.85;;;16.67;;
64842;SDS011;51310;52.198;5.422;2023-11-18T09:11:04;31.05;;;17.73;;
64842;SDS011;51310;52.198;5.422;2023-11-18T09:13:34;32.88;;;17.30;;
64842;SDS011;51310;52.198;5.422;2023-11-18T09:16:03;37.03;;;17.83;;
64842;SDS011;51310;52.198;5.422;2023-11-18T09:18:34;30.02;;;17.58;;
64842;SDS011;51310;52.198;5.422;2023-11-18T09:21:04;35.47;;;17.42;;
64842;SDS011;51310;52.198;5.422;2023-11-18T09:23:32;36.60;;;17.67;;
64842;SDS011;51310;52.198;5.422;2023-11-18T09:26:02;38.40;;;17.90;;
64842;SDS011;51310;52.198;5.422;2023-11-18T09:31:00;33.40;;;15.15;;
64842;SDS011;51310;52.198;5.422;2023-11-18T09:33:28;27.55;;;15.55;;
64842;SDS011;51310;52.198;5.422;2023-11-18T09:36:04;38.00;;;16.63;;
64842;SDS011;51310;52.198;5.422;2023-11-18T09:38:37;39.20;;;17.17;;
64842;SDS011;51310;52.198;5.422;2023-11-18T09:41:06;34.97;;;17.02;;
64842;SDS011;51310;52.198;5.422;2023-11-18T09:43:38;34.37;;;16.43;;
64842;SDS011;51310;52.198;5.422;2023-11-18T09:46:12;34.78;;;16.58;;
64842;SDS011;51310;52.198;5.422;2023-11-18T09:48:50;32.20;;;15.32;;
64842;SDS011;51310;52.198;5.422;2023-11-18T09:51:42;33.05;;;15.35;;
64842;SDS011;51310;52.198;5.422;2023-11-18T09:57:16;31.10;;;15.30;;
64842;SDS011;51310;52.198;5.422;2023-11-18T10:00:08;35.60;;;14.73;;
64842;SDS011;51310;52.198;5.422;2023-11-18T10:02:57;32.22;;;15.50;;
64842;SDS011;51310;52.198;5.422;2023-11-18T10:05:26;26.88;;;13.82;;
64842;SDS011;51310;52.198;5.422;2023-11-18T10:07:55;36.90;;;15.85;;
64842;SDS011;51310;52.198;5.422;2023-11-18T10:10:23;32.72;;;14.35;;
64842;SDS011;51310;52.198;5.422;2023-11-18T10:12:52;36.00;;;14.63;;
64842;SDS011;51310;52.198;5.422;2023-11-18T10:15:21;36.67;;;13.93;;
64842;SDS011;51310;52.198;5.422;2023-11-18T10:17:51;30.08;;;13.10;;
64842;SDS011;51310;52.198;5.422;2023-11-18T10:20:46;30.08;;;13.27;;
64842;SDS011;51310;52.198;5.422;2023-11-18T10:23:18;30.88;;;13.13;;
64842;SDS011;51310;52.198;5.422;2023-11-18T10:25:49;21.60;;;12.43;;
64842;SDS011;51310;52.198;5.422;2023-11-18T10:28:26;30.92;;;11.38;;
64842;SDS011;51310;52.198;5.422;2023-11-18T10:30:53;31.27;;;13.10;;
64842;SDS011;51310;52.198;5.422;2023-11-18T10:33:31;31.70;;;14.15;;
64842;SDS011;51310;52.198;5.422;2023-11-18T10:36:03;25.48;;;11.82;;
64842;SDS011;51310;52.198;5.422;2023-11-18T10:38:41;26.83;;;12.32;;
64842;SDS011;51310;52.198;5.422;2023-11-18T10:41:14;22.40;;;11.88;;
64842;SDS011;51310;52.198;5.422;2023-11-18T10:43:43;24.60;;;11.45;;
64842;SDS011;51310;52.198;5.422;2023-11-18T10:46:14;30.33;;;12.23;;
64842;SDS011;51310;52.198;5.422;2023-11-18T10:48:45;19.23;;;10.73;;
64842;SDS011;51310;52.198;5.422;2023-11-18T10:51:17;24.33;;;12.20;;
64842;SDS011;51310;52.198;5.422;2023-11-18T10:53:48;29.10;;;12.13;;
64842;SDS011;51310;52.198;5.422;2023-11-18T10:56:23;21.42;;;11.82;;
64842;SDS011;51310;52.198;5.422;2023-11-18T10:58:55;23.08;;;11.48;;
64842;SDS011;51310;52.198;5.422;2023-11-18T11:01:33;24.10;;;11.82;;
64842;SDS011;51310;52.198;5.422;2023-11-18T11:04:07;26.30;;;11.38;;
64842;SDS011;51310;52.198;5.422;2023-11-18T11:06:40;24.65;;;10.90;;
64842;SDS011;51310;52.198;5.422;2023-11-18T11:09:17;28.25;;;11.07;;
64842;SDS011;51310;52.198;5.422;2023-11-18T11:11:56;24.90;;;11.32;;
64842;SDS011;51310;52.198;5.422;2023-11-18T11:14:33;21.55;;;10.65;;
64842;SDS011;51310;52.198;5.422;2023-11-18T11:17:11;25.48;;;10.43;;
64842;SDS011;51310;52.198;5.422;2023-11-18T11:19:50;24.85;;;10.70;;
64842;SDS011;51310;52.198;5.422;2023-11-18T11:23:06;22.58;;;10.88;;
64842;SDS011;51310;52.198;5.422;2023-11-18T11:28:26;24.60;;;10.40;;
64842;SDS011;51310;52.198;5.422;2023-11-18T11:31:12;20.58;;;9.57;;
64842;SDS011;51310;52.198;5.422;2023-11-18T11:34:03;25.42;;;10.82;;
64842;SDS011;51310;52.198;5.422;2023-11-18T11:36:49;24.13;;;10.18;;
64842;SDS011;51310;52.198;5.422;2023-11-18T11:39:19;17.73;;;8.80;;
64842;SDS011;51310;52.198;5.422;2023-11-18T11:41:55;17.23;;;9.57;;
64842;SDS011;51310;52.198;5.422;2023-11-18T11:44:23;19.00;;;10.10;;
64842;SDS011;51310;52.198;5.422;2023-11-18T11:46:54;27.00;;;10.13;;
64842;SDS011;51310;52.198;5.422;2023-11-18T11:49:25;20.15;;;9.80;;
64842;SDS011;51310;52.198;5.422;2023-11-18T11:52:01;22.85;;;10.25;;
64842;SDS011;51310;52.198;5.422;2023-11-18T11:55:05;18.27;;;10.65;;
64842;SDS011;51310;52.198;5.422;2023-11-18T11:57:40;18.95;;;9.90;;
64842;SDS011;51310;52.198;5.422;2023-11-18T12:00:10;28.67;;;11.77;;
64842;SDS011;51310;52.198;5.422;2023-11-18T12:02:40;26.85;;;10.35;;
64842;SDS011;51310;52.198;5.422;2023-11-18T12:05:17;23.88;;;9.43;;
64842;SDS011;51310;52.198;5.422;2023-11-18T12:07:54;27.25;;;10.85;;
64842;SDS011;51310;52.198;5.422;2023-11-18T12:10:21;24.40;;;9.90;;
64842;SDS011;51310;52.198;5.422;2023-11-18T12:13:11;23.98;;;11.25;;
64842;SDS011;51310;52.198;5.422;2023-11-18T12:15:48;21.98;;;9.60;;
64842;SDS011;51310;52.198;5.422;2023-11-18T12:18:21;20.58;;;8.70;;
64842;SDS011;51310;52.198;5.422;2023-11-18T12:20:49;14.05;;;8.07;;
64842;SDS011;51310;52.198;5.422;2023-11-18T12:23:28;18.67;;;8.75;;
64842;SDS011;51310;52.198;5.422;2023-11-18T12:25:55;17.67;;;8.70;;
64842;SDS011;51310;52.198;5.422;2023-11-18T12:31:00;15.77;;;8.05;;
64842;SDS011;51310;52.198;5.422;2023-11-18T12:42:20;18.63;;;7.40;;
64842;SDS011;51310;52.198;5.422;2023-11-18T12:46:07;18.02;;;6.80;;
64842;SDS011;51310;52.198;5.422;2023-11-18T12:48:46;14.32;;;7.25;;
64842;SDS011;51310;52.198;5.422;2023-11-18T12:51:16;15.35;;;7.55;;
64842;SDS011;51310;52.198;5.422;2023-11-18T12:53:48;14.52;;;8.32;;
64842;SDS011;51310;52.198;5.422;2023-11-18T12:56:17;20.05;;;6.93;;
64842;SDS011;51310;52.198;5.422;2023-11-18T12:58:45;15.45;;;7.53;;
64842;SDS011;51310;52.198;5.422;2023-11-18T13:01:12;13.43;;;5.68;;
64842;SDS011;51310;52.198;5.422;2023-11-18T13:03:40;18.27;;;6.22;;
64842;SDS011;51310;52.198;5.422;2023-11-18T13:06:16;18.02;;;5.75;;
64842;SDS011;51310;52.198;5.422;2023-11-18T13:08:42;8.57;;;5.00;;
64842;SDS011;51310;52.198;5.422;2023-11-18T13:11:09;12.00;;;5.30;;
64842;SDS011;51310;52.198;5.422;2023-11-18T13:13:40;11.80;;;5.57;;
64842;SDS011;51310;52.198;5.422;2023-11-18T13:16:08;16.70;;;5.60;;
64842;SDS011;51310;52.198;5.422;2023-11-18T13:21:18;8.40;;;5.65;;
64842;SDS011;51310;52.198;5.422;2023-11-18T13:23:51;9.85;;;5.60;;
64842;SDS011;51310;52.198;5.422;2023-11-18T13:26:18;8.02;;;4.53;;
64842;SDS011;51310;52.198;5.422;2023-11-18T13:28:46;9.40;;;5.43;;
64842;SDS011;51310;52.198;5.422;2023-11-18T13:31:14;8.40;;;5.00;;
64842;SDS011;51310;52.198;5.422;2023-11-18T13:33:46;13.57;;;5.30;;
64842;SDS011;51310;52.198;5.422;2023-11-18T13:36:16;9.93;;;5.13;;
64842;SDS011;51310;52.198;5.422;2023-11-18T13:38:42;12.93;;;4.68;;
64842;SDS011;51310;52.198;5.422;2023-11-18T13:41:09;14.10;;;4.50;;
64842;SDS011;51310;52.198;5.422;2023-11-18T13:46:14;8.43;;;4.88;;
64842;SDS011;51310;52.198;5.422;2023-11-18T13:48:49;9.85;;;4.28;;
64842;SDS011;51310;52.198;5.422;2023-11-18T13:51:16;14.30;;;4.68;;
64842;SDS011;51310;52.198;5.422;2023-11-18T13:53:44;6.35;;;3.85;;
64842;SDS011;51310;52.198;5.422;2023-11-18T13:56:12;8.73;;;4.53;;
64842;SDS011;51310;52.198;5.422;2023-11-18T13:58:41;11.60;;;4.13;;
64842;SDS011;51310;52.198;5.422;2023-11-18T14:01:10;15.32;;;4.32;;
64842;SDS011;51310;52.198;5.422;2023-11-18T14:03:37;9.50;;;3.63;;
64842;SDS011;51310;52.198;5.422;2023-11-18T14:06:05;9.27;;;4.93;;
64842;SDS011;51310;52.198;5.422;2023-11-18T14:08:35;9.60;;;3.65;;
64842;SDS011;51310;52.198;5.422;2023-11-18T14:11:02;7.05;;;4.18;;
64842;SDS011;51310;52.198;5.422;2023-11-18T14:13:30;9.55;;;3.50;;
64842;SDS011;51310;52.198;5.422;2023-11-18T14:15:59;7.50;;;3.90;;
64842;SDS011;51310;52.198;5.422;2023-11-18T14:18:27;7.18;;;4.43;;
64842;SDS011;51310;52.198;5.422;2023-11-18T14:20:53;11.90;;;4.03;;
64842;SDS011;51310;52.198;5.422;2023-11-18T14:23:19;6.68;;;3.70;;
64842;SDS011;51310;52.198;5.422;2023-11-18T14:25:47;5.00;;;3.05;;
64842;SDS011;51310;52.198;5.422;2023-11-18T14:28:13;7.63;;;2.90;;
64842;SDS011;51310;52.198;5.422;2023-11-18T14:30:40;4.55;;;3.35;;
64842;SDS011;51310;52.198;5.422;2023-11-18T14:33:06;7.88;;;3.72;;
64842;SDS011;51310;52.198;5.422;2023-11-18T14:35:32;8.55;;;3.72;;
64842;SDS011;51310;52.198;5.422;2023-11-18T14:37:59;6.32;;;3.42;;
64842;SDS011;51310;52.198;5.422;2023-11-18T14:40:26;5.72;;;3.17;;
64842;SDS011;51310;52.198;5.422;2023-11-18T14:42:53;6.43;;;2.42;;
64842;SDS011;51310;52.198;5.422;2023-11-18T14:45:20;4.57;;;2.70;;
64842;SDS011;51310;52.198;5.422;2023-11-18T14:47:49;5.35;;;2.42;;
64842;SDS011;51310;52.198;5.422;2023-11-18T14:50:18;4.82;;;2.90;;
64842;SDS011;51310;52.198;5.422;2023-11-18T14:52:50;5.05;;;2.47;;
64842;SDS011;51310;52.198;5.422;2023-11-18T14:55:27;3.90;;;2.65;;
64842;SDS011;51310;52.198;5.422;2023-11-18T14:57:58;3.53;;;2.38;;
64842;SDS011;51310;52.198;5.422;2023-11-18T15:00:24;4.97;;;2.65;;
64842;SDS011;51310;52.198;5.422;2023-11-18T15:02:53;2.90;;;2.25;;
64842;SDS011;51310;52.198;5.422;2023-11-18T15:05:20;3.70;;;2.50;;
64842;SDS011;51310;52.198;5.422;2023-11-18T15:07:47;3.97;;;2.63;;